Time;durP1;ratioP1;P1;durP2;ratioP2;P2;SDS_P1;SDS_P2;PMS_P1;PMS_P2;Temp;Humidity;BMP_temperature;BMP_pressure;BME280_temperature;BME280_humidity;BME280_pressure;Samples;Min_cycle;Max_cycle;Signal;HPM_P1;HPM_P2
2022/06/10 00:01:50;;;;;;;0.00;0.00;;;;;;;;;;5001002;28;88761;-74
2022/06/10 00:04:17;;;;;;;0.00;0.00;;;;;;;;;;5001524;28;88562;-75
2022/06/10 00:06:44;;;;;;;0.00;0.00;;;;;;;;;;5002052;28;89337;-74
2022/06/10 00:09:16;;;;;;;0.00;0.00;;;;;;;;;;5002052;28;89822;-74
2022/06/10 00:11:42;;;;;;;0.00;0.00;;;;;;;;;;5001988;28;87852;-74
2022/06/10 00:14:09;;;;;;;0.00;0.00;;;;;;;;;;5002806;28;89207;-75
2022/06/10 00:16:37;;;;;;;0.00;0.00;;;;;;;;;;5002424;28;89103;-74
2022/06/10 00:19:03;;;;;;;0.00;0.00;;;;;;;;;;5002439;28;88340;-74
2022/06/10 00:21:29;;;;;;;0.00;0.00;;;;;;;;;;5004970;28;88954;-74
2022/06/10 00:23:56;;;;;;;0.00;0.00;;;;;;;;;;5002498;28;88235;-75
2022/06/10 00:26:22;;;;;;;0.00;0.00;;;;;;;;;;5002774;28;88891;-74
2022/06/10 00:28:49;;;;;;;0.00;0.00;;;;;;;;;;5002381;28;89228;-74
2022/06/10 00:31:16;;;;;;;0.00;0.00;;;;;;;;;;5001021;28;89227;-74
2022/06/10 00:33:49;;;;;;;0.00;0.00;;;;;;;;;;5000640;28;88699;-75
2022/06/10 00:36:15;;;;;;;0.00;0.00;;;;;;;;;;5002214;28;89608;-75
2022/06/10 00:38:42;;;;;;;0.00;0.00;;;;;;;;;;5002155;28;88284;-74
2022/06/10 00:41:08;;;;;;;0.00;0.00;;;;;;;;;;5005082;28;89027;-75
2022/06/10 00:43:35;;;;;;;0.00;0.00;;;;;;;;;;5002108;28;87882;-74
2022/06/10 00:46:20;;;;;;;0.00;0.00;;;;;;;;;;5002089;28;89357;-74
2022/06/10 00:48:55;;;;;;;0.00;0.00;;;;;;;;;;5001991;28;89297;-74
2022/06/10 00:51:33;;;;;;;0.00;0.00;;;;;;;;;;5002498;28;88606;-74
2022/06/10 00:54:19;;;;;;;0.00;0.00;;;;;;;;;;5001828;28;87814;-75
2022/06/10 00:56:48;;;;;;;0.00;0.00;;;;;;;;;;5001399;28;88446;-75
2022/06/10 00:59:24;;;;;;;0.00;0.00;;;;;;;;;;5037802;28;88531;-74
2022/06/10 01:01:56;;;;;;;0.00;0.00;;;;;;;;;;5041857;28;89662;-74
2022/06/10 01:04:24;;;;;;;;;;;;;;;;;;5045430;28;88355;-74
2022/06/10 01:06:50;;;;;;;0.00;0.00;;;;;;;;;;5040989;28;116945;-74
2022/06/10 01:09:16;;;;;;;0.00;0.00;;;;;;;;;;5039580;28;89192;-75
2022/06/10 01:11:56;;;;;;;0.00;0.00;;;;;;;;;;5042022;28;87989;-75
2022/06/10 01:14:41;;;;;;;1.45;1.35;;;;;;;;;;5040938;27;88481;-74
2022/06/10 01:17:12;;;;;;;0.00;0.00;;;;;;;;;;5042310;28;88463;-73
2022/06/10 01:19:57;;;;;;;0.40;0.40;;;;;;;;;;5041729;28;88250;-74
2022/06/10 01:22:36;;;;;;;0.00;0.00;;;;;;;;;;5023728;28;88590;-74
2022/06/10 01:25:22;;;;;;;0.00;0.00;;;;;;;;;;5040527;28;89816;-74
2022/06/10 01:28:01;;;;;;;0.00;0.00;;;;;;;;;;5044516;28;88561;-74
2022/06/10 01:30:36;;;;;;;0.00;0.00;;;;;;;;;;5041465;28;89275;-74
2022/06/10 01:33:08;;;;;;;0.00;0.00;;;;;;;;;;5041493;28;88225;-74
2022/06/10 01:35:44;;;;;;;0.00;0.00;;;;;;;;;;5041071;28;88521;-73
2022/06/10 01:38:13;;;;;;;0.00;0.00;;;;;;;;;;5041475;28;88589;-74
2022/06/10 01:40:43;;;;;;;0.00;0.00;;;;;;;;;;5041342;28;88187;-75
2022/06/10 01:43:16;;;;;;;0.00;0.00;;;;;;;;;;5041627;28;88894;-74
2022/06/10 01:45:49;;;;;;;0.00;0.00;;;;;;;;;;5040962;28;88798;-75
2022/06/10 01:48:21;;;;;;;0.00;0.00;;;;;;;;;;5041215;28;88448;-74
2022/06/10 01:50:51;;;;;;;0.38;0.38;;;;;;;;;;5043573;28;88916;-73
2022/06/10 01:53:27;;;;;;;0.00;0.00;;;;;;;;;;5041245;28;88238;-74
2022/06/10 01:55:54;;;;;;;0.00;0.00;;;;;;;;;;5040971;28;89002;-73
2022/06/10 01:58:20;;;;;;;0.00;0.00;;;;;;;;;;5040234;28;89304;-74
2022/06/10 02:00:48;;;;;;;0.00;0.00;;;;;;;;;;5040873;28;87878;-74
2022/06/10 02:03:33;;;;;;;0.00;0.00;;;;;;;;;;5041029;28;89256;-74
2022/06/10 02:06:10;;;;;;;0.00;0.00;;;;;;;;;;5039545;28;89144;-74
2022/06/10 02:08:44;;;;;;;0.00;0.00;;;;;;;;;;5041114;28;88255;-74
2022/06/10 02:11:14;;;;;;;0.00;0.00;;;;;;;;;;5022587;28;88913;-72
2022/06/10 02:13:41;;;;;;;0.00;0.00;;;;;;;;;;5043961;28;89328;-72
2022/06/10 02:16:09;;;;;;;0.00;0.00;;;;;;;;;;5040255;28;88658;-73
2022/06/10 02:18:45;;;;;;;0.00;0.00;;;;;;;;;;5040356;28;89109;-73
2022/06/10 02:21:16;;;;;;;0.00;0.00;;;;;;;;;;5023331;28;87952;-73
2022/06/10 02:23:47;;;;;;;0.10;0.10;;;;;;;;;;5040685;28;89206;-73
2022/06/10 02:26:14;;;;;;;0.00;0.00;;;;;;;;;;5040392;28;89274;-74
2022/06/10 02:28:43;;;;;;;0.00;0.00;;;;;;;;;;5040549;28;88095;-74
2022/06/10 02:31:15;;;;;;;0.00;0.00;;;;;;;;;;5040024;28;89163;-74
2022/06/10 02:33:42;;;;;;;;;;;;;;;;;;5041315;28;88525;-74
2022/06/10 02:36:14;;;;;;;0.00;0.00;;;;;;;;;;5042635;28;117736;-74
2022/06/10 02:38:50;;;;;;;0.00;0.00;;;;;;;;;;5040474;28;89329;-74
2022/06/10 02:41:36;;;;;;;0.20;0.20;;;;;;;;;;5039780;28;88566;-75
2022/06/10 02:44:07;;;;;;;0.00;0.00;;;;;;;;;;5040369;28;89673;-73
2022/06/10 02:46:40;;;;;;;0.00;0.00;;;;;;;;;;5039741;28;88864;-74
2022/06/10 02:49:11;;;;;;;0.00;0.00;;;;;;;;;;5018875;28;88996;-75
2022/06/10 02:51:38;;;;;;;0.00;0.00;;;;;;;;;;5038714;28;88886;-74
2022/06/10 02:54:07;;;;;;;0.00;0.00;;;;;;;;;;5039915;28;89159;-75
2022/06/10 02:56:34;;;;;;;0.00;0.00;;;;;;;;;;5043103;28;87915;-74
2022/06/10 03:01:47;;;;;;;0.00;0.00;;;;;;;;;;5039835;28;87950;-74
2022/06/10 03:04:23;;;;;;;0.00;0.00;;;;;;;;;;5040324;28;88185;-73
2022/06/10 03:07:06;;;;;;;0.00;0.00;;;;;;;;;;5021689;28;89614;-74
2022/06/10 03:09:44;;;;;;;0.00;0.00;;;;;;;;;;5022143;28;91474;-74
2022/06/10 03:12:24;;;;;;;0.00;0.00;;;;;;;;;;5039727;28;88410;-74
2022/06/10 03:15:14;;;;;;;0.00;0.00;;;;;;;;;;5039904;28;89162;-74
2022/06/10 03:18:00;;;;;;;0.00;0.00;;;;;;;;;;5021965;28;91660;-74
2022/06/10 03:20:32;;;;;;;0.00;0.00;;;;;;;;;;4990694;28;90766;-74
2022/06/10 03:23:02;;;;;;;0.00;0.00;;;;;;;;;;5039988;28;88344;-75
2022/06/10 03:25:39;;;;;;;0.00;0.00;;;;;;;;;;5040404;28;88356;-75
2022/06/10 03:28:18;;;;;;;0.00;0.00;;;;;;;;;;5039702;28;88744;-74
2022/06/10 03:30:57;;;;;;;0.00;0.00;;;;;;;;;;5039299;28;88151;-75
2022/06/10 03:33:37;;;;;;;0.00;0.00;;;;;;;;;;5038934;28;89355;-74
2022/06/10 03:36:05;;;;;;;0.00;0.00;;;;;;;;;;5041012;28;87985;-74
2022/06/10 03:38:39;;;;;;;0.00;0.00;;;;;;;;;;5025963;28;87903;-75
2022/06/10 03:41:07;;;;;;;0.00;0.00;;;;;;;;;;5043080;28;88693;-73
2022/06/10 03:43:37;;;;;;;0.00;0.00;;;;;;;;;;5045886;28;89775;-75
2022/06/10 03:46:05;;;;;;;0.00;0.00;;;;;;;;;;5042932;28;88757;-74
2022/06/10 03:48:33;;;;;;;0.00;0.00;;;;;;;;;;5025302;28;89172;-73
2022/06/10 03:51:00;;;;;;;0.00;0.00;;;;;;;;;;5043633;28;88397;-73
2022/06/10 03:53:27;;;;;;;0.00;0.00;;;;;;;;;;5043022;28;88136;-74
2022/06/10 03:55:53;;;;;;;0.10;0.10;;;;;;;;;;5042381;28;89285;-74
2022/06/10 03:58:20;;;;;;;0.00;0.00;;;;;;;;;;5042342;28;88686;-73
2022/06/10 04:00:46;;;;;;;0.00;0.00;;;;;;;;;;5042972;28;89909;-75
2022/06/10 04:03:13;;;;;;;0.00;0.00;;;;;;;;;;5042697;28;88195;-74
2022/06/10 04:05:40;;;;;;;0.00;0.00;;;;;;;;;;5045605;28;87923;-74
2022/06/10 04:08:26;;;;;;;0.00;0.00;;;;;;;;;;5042222;28;89353;-74
2022/06/10 04:10:53;;;;;;;0.00;0.00;;;;;;;;;;5042731;28;88161;-74
2022/06/10 04:13:20;;;;;;;0.00;0.00;;;;;;;;;;5042887;28;88380;-74
2022/06/10 04:15:47;;;;;;;0.00;0.00;;;;;;;;;;5043164;28;88216;-75
2022/06/10 04:18:13;;;;;;;0.00;0.00;;;;;;;;;;5042620;28;88368;-74
2022/06/10 04:20:40;;;;;;;0.00;0.00;;;;;;;;;;5042547;28;88889;-74
2022/06/10 04:23:07;;;;;;;0.00;0.00;;;;;;;;;;5041739;28;90388;-74
2022/06/10 04:25:34;;;;;;;0.00;0.00;;;;;;;;;;5042601;28;88216;-74
2022/06/10 04:28:00;;;;;;;0.00;0.00;;;;;;;;;;5045279;28;89154;-74
2022/06/10 04:30:29;;;;;;;0.00;0.00;;;;;;;;;;5042685;28;88255;-73
2022/06/10 04:32:56;;;;;;;0.00;0.00;;;;;;;;;;5042706;28;89483;-74
2022/06/10 04:35:23;;;;;;;0.00;0.00;;;;;;;;;;5024690;28;88858;-74
2022/06/10 04:37:49;;;;;;;0.00;0.00;;;;;;;;;;5042233;28;87954;-75
2022/06/10 04:40:17;;;;;;;0.00;0.00;;;;;;;;;;5025213;28;87623;-73
2022/06/10 04:42:44;;;;;;;0.00;0.00;;;;;;;;;;5042161;28;88412;-74
2022/06/10 04:45:10;;;;;;;0.00;0.00;;;;;;;;;;5042088;28;88182;-74
2022/06/10 04:47:37;;;;;;;0.00;0.00;;;;;;;;;;5041173;27;89186;-74
2022/06/10 04:50:04;;;;;;;0.00;0.00;;;;;;;;;;5044990;28;89494;-74
2022/06/10 04:52:31;;;;;;;0.00;0.00;;;;;;;;;;5042167;28;88054;-74
2022/06/10 04:54:57;;;;;;;0.00;0.00;;;;;;;;;;5042119;28;89123;-74
2022/06/10 04:57:24;;;;;;;0.00;0.00;;;;;;;;;;5041712;28;88525;-73
2022/06/10 04:59:50;;;;;;;0.00;0.00;;;;;;;;;;5042118;28;88461;-74
2022/06/10 05:02:17;;;;;;;0.00;0.00;;;;;;;;;;5042054;28;89134;-74
2022/06/10 05:04:43;;;;;;;0.00;0.00;;;;;;;;;;5042164;28;88043;-75
2022/06/10 05:07:10;;;;;;;0.00;0.00;;;;;;;;;;5041930;28;88750;-74
2022/06/10 05:09:36;;;;;;;0.00;0.00;;;;;;;;;;5044817;28;89315;-74
2022/06/10 05:12:03;;;;;;;0.00;0.00;;;;;;;;;;5041371;28;89123;-74
2022/06/10 05:14:29;;;;;;;0.00;0.00;;;;;;;;;;5041892;28;89099;-74
2022/06/10 05:16:56;;;;;;;0.00;0.00;;;;;;;;;;5041798;28;88256;-74
2022/06/10 05:19:23;;;;;;;0.00;0.00;;;;;;;;;;5041162;28;89196;-74
2022/06/10 05:21:49;;;;;;;0.00;0.00;;;;;;;;;;5041893;28;89223;-75
2022/06/10 05:24:16;;;;;;;0.00;0.00;;;;;;;;;;5041703;28;87924;-76
2022/06/10 05:26:42;;;;;;;0.00;0.00;;;;;;;;;;5041608;28;88536;-76
2022/06/10 05:29:11;;;;;;;0.00;0.00;;;;;;;;;;5042167;28;88526;-75
2022/06/10 05:31:37;;;;;;;0.00;0.00;;;;;;;;;;5044506;28;88121;-75
2022/06/10 05:36:49;;;;;;;0.00;0.00;;;;;;;;;;5041062;28;88622;-74
2022/06/10 05:39:16;;;;;;;0.00;0.00;;;;;;;;;;5041501;28;89559;-75
2022/06/10 05:44:28;;;;;;;0.30;0.30;;;;;;;;;;5041058;28;87885;-74
2022/06/10 05:46:55;;;;;;;0.00;0.00;;;;;;;;;;5041406;28;89109;-75
2022/06/10 05:49:23;;;;;;;0.00;0.00;;;;;;;;;;5041283;28;88264;-76
2022/06/10 05:51:50;;;;;;;0.00;0.00;;;;;;;;;;5041248;28;87716;-75
2022/06/10 05:54:17;;;;;;;0.00;0.00;;;;;;;;;;5044401;28;88453;-75
2022/06/10 05:56:46;;;;;;;0.00;0.00;;;;;;;;;;5041127;28;88260;-75
2022/06/10 05:59:13;;;;;;;0.00;0.00;;;;;;;;;;5021737;28;89939;-76
2022/06/10 06:01:41;;;;;;;0.00;0.00;;;;;;;;;;5040597;28;89391;-76
2022/06/10 06:04:07;;;;;;;0.00;0.00;;;;;;;;;;5041178;28;88004;-75
2022/06/10 06:06:33;;;;;;;0.00;0.00;;;;;;;;;;5040996;28;89147;-75
2022/06/10 06:09:00;;;;;;;0.00;0.00;;;;;;;;;;5041195;28;88614;-75
2022/06/10 06:11:26;;;;;;;0.00;0.00;;;;;;;;;;5040685;28;89002;-75
2022/06/10 06:13:58;;;;;;;0.13;0.13;;;;;;;;;;5040932;28;88928;-75
2022/06/10 06:16:24;;;;;;;1.35;1.25;;;;;;;;;;5009445;28;91274;-75
2022/06/10 06:18:52;;;;;;;0.10;0.10;;;;;;;;;;5041099;28;88916;-75
2022/06/10 06:21:19;;;;;;;0.00;0.00;;;;;;;;;;5040776;28;89279;-75
2022/06/10 06:23:48;;;;;;;0.00;0.00;;;;;;;;;;5040660;28;87959;-74
2022/06/10 06:26:17;;;;;;;0.00;0.00;;;;;;;;;;5039658;28;88695;-74
2022/06/10 06:28:44;;;;;;;0.00;0.00;;;;;;;;;;5040819;28;87948;-75
2022/06/10 06:31:10;;;;;;;0.10;0.10;;;;;;;;;;5040592;28;87779;-76
2022/06/10 06:33:37;;;;;;;0.00;0.00;;;;;;;;;;5040631;28;88916;-75
2022/06/10 06:36:04;;;;;;;0.00;0.00;;;;;;;;;;5040532;28;89085;-76
2022/06/10 06:38:31;;;;;;;0.00;0.00;;;;;;;;;;5043328;28;88109;-75
2022/06/10 06:40:57;;;;;;;0.00;0.00;;;;;;;;;;5040505;28;88708;-75
2022/06/10 06:43:23;;;;;;;0.00;0.00;;;;;;;;;;5041117;28;88207;-74
2022/06/10 06:45:50;;;;;;;0.22;0.22;;;;;;;;;;5040474;28;88230;-75
2022/06/10 06:48:16;;;;;;;1.27;0.80;;;;;;;;;;5040110;28;88152;-75
2022/06/10 06:50:44;;;;;;;0.00;0.00;;;;;;;;;;5021992;28;89950;-74
2022/06/10 06:53:11;;;;;;;0.00;0.00;;;;;;;;;;5040071;28;90164;-74
2022/06/10 06:55:39;;;;;;;0.00;0.00;;;;;;;;;;5046024;27;89021;-74
2022/06/10 06:58:10;;;;;;;0.00;0.00;;;;;;;;;;5060007;27;88436;-73
2022/06/10 07:00:44;;;;;;;0.00;0.00;;;;;;;;;;5063451;27;88904;-74
2022/06/10 07:03:10;;;;;;;0.00;0.00;;;;;;;;;;5060549;27;87729;-72
2022/06/10 07:05:37;;;;;;;0.00;0.00;;;;;;;;;;5060344;27;89012;-73
2022/06/10 07:08:04;;;;;;;0.00;0.00;;;;;;;;;;5042438;27;89810;-74
2022/06/10 07:10:30;;;;;;;0.28;0.28;;;;;;;;;;5042667;27;87869;-71
2022/06/10 07:12:57;;;;;;;0.00;0.00;;;;;;;;;;5059784;27;88456;-72
2022/06/10 07:15:24;;;;;;;0.00;0.00;;;;;;;;;;5059876;27;90271;-72
2022/06/10 07:17:50;;;;;;;0.00;0.00;;;;;;;;;;5060347;27;88834;-73
2022/06/10 07:20:28;;;;;;;0.00;0.00;;;;;;;;;;5062976;27;89101;-73
2022/06/10 07:22:55;;;;;;;0.00;0.00;;;;;;;;;;5042141;27;89102;-73
2022/06/10 07:25:21;;;;;;;0.10;0.10;;;;;;;;;;5041865;27;89384;-72
2022/06/10 07:27:48;;;;;;;0.57;0.57;;;;;;;;;;5060923;27;89067;-72
2022/06/10 07:30:16;;;;;;;0.00;0.00;;;;;;;;;;5061396;27;87785;-74
2022/06/10 07:32:43;;;;;;;0.00;0.00;;;;;;;;;;5062953;27;87991;-74
2022/06/10 07:35:10;;;;;;;0.00;0.00;;;;;;;;;;5040438;27;89336;-73
2022/06/10 07:37:37;;;;;;;0.10;0.10;;;;;;;;;;5052888;27;88210;-72
2022/06/10 07:40:04;;;;;;;0.00;0.00;;;;;;;;;;5061735;27;88940;-71
2022/06/10 07:42:30;;;;;;;0.00;0.00;;;;;;;;;;5046326;27;90576;-74
2022/06/10 07:44:57;;;;;;;0.10;0.10;;;;;;;;;;5059804;27;89413;-74
2022/06/10 07:47:23;;;;;;;0.10;0.10;;;;;;;;;;5059453;27;89234;-74
2022/06/10 07:49:50;;;;;;;0.17;0.17;;;;;;;;;;5059468;27;88259;-74
2022/06/10 07:52:16;;;;;;;0.00;0.00;;;;;;;;;;5059831;27;89358;-74
2022/06/10 07:54:43;;;;;;;0.00;0.00;;;;;;;;;;5059666;27;89043;-74
2022/06/10 07:57:11;;;;;;;0.10;0.10;;;;;;;;;;5060193;27;88148;-73
2022/06/10 07:59:40;;;;;;;0.00;0.00;;;;;;;;;;5059659;27;89160;-74
2022/06/10 08:02:06;;;;;;;0.00;0.00;;;;;;;;;;5059269;27;88796;-75
2022/06/10 08:04:33;;;;;;;0.00;0.00;;;;;;;;;;5062253;27;88680;-74
2022/06/10 08:07:00;;;;;;;0.10;0.10;;;;;;;;;;5059519;27;89254;-73
2022/06/10 08:09:26;;;;;;;0.00;0.00;;;;;;;;;;5059473;27;88051;-74
2022/06/10 08:11:52;;;;;;;0.10;0.10;;;;;;;;;;5059708;27;88100;-73
2022/06/10 08:14:19;;;;;;;0.10;0.10;;;;;;;;;;5059331;27;89529;-73
2022/06/10 08:16:45;;;;;;;0.10;0.10;;;;;;;;;;5058952;27;88020;-73
2022/06/10 08:19:12;;;;;;;0.10;0.10;;;;;;;;;;5059457;27;88971;-73
2022/06/10 08:24:24;;;;;;;0.00;0.00;;;;;;;;;;5062908;27;87766;-72
2022/06/10 08:26:53;;;;;;;0.00;0.00;;;;;;;;;;5065771;27;88886;-73
2022/06/10 08:29:20;;;;;;;0.20;0.10;;;;;;;;;;5061944;27;88551;-73
2022/06/10 08:31:47;;;;;;;0.10;0.10;;;;;;;;;;5062801;27;89635;-73
2022/06/10 08:34:14;;;;;;;0.00;0.00;;;;;;;;;;5062787;27;89235;-73
2022/06/10 08:36:41;;;;;;;0.05;0.05;;;;;;;;;;5062832;27;87728;-73
2022/06/10 08:39:08;;;;;;;0.00;0.00;;;;;;;;;;5062677;27;88408;-73
2022/06/10 08:42:05;;;;;;;0.10;0.10;;;;;;;;;;5044120;27;92415;-74
2022/06/10 08:44:44;;;;;;;0.25;0.20;;;;;;;;;;5040789;27;88257;-74
2022/06/10 08:47:18;;;;;;;0.10;0.10;;;;;;;;;;5062938;27;89099;-74
2022/06/10 08:50:03;;;;;;;0.00;0.00;;;;;;;;;;5065333;27;89211;-75
2022/06/10 08:52:42;;;;;;;0.00;0.00;;;;;;;;;;5062383;27;89131;-75
2022/06/10 08:55:41;;;;;;;0.00;0.00;;;;;;;;;;5061828;27;89878;-76
2022/06/10 08:58:18;;;;;;;0.00;0.00;;;;;;;;;;5007247;27;87905;-76
2022/06/10 09:00:52;;;;;;;0.10;0.10;;;;;;;;;;5062530;27;89470;-77
2022/06/10 09:03:30;;;;;;;0.20;0.20;;;;;;;;;;5062374;27;89495;-75
2022/06/10 09:05:59;;;;;;;0.00;0.00;;;;;;;;;;5062043;27;87929;-77
2022/06/10 09:08:31;;;;;;;0.00;0.00;;;;;;;;;;5062169;27;88675;-77
2022/06/10 09:11:11;;;;;;;0.20;0.20;;;;;;;;;;5061446;27;89584;-77
2022/06/10 09:13:50;;;;;;;0.10;0.10;;;;;;;;;;5065993;27;87195;-75
2022/06/10 09:16:17;;;;;;;0.10;0.10;;;;;;;;;;5062027;27;89372;-76
2022/06/10 09:18:57;;;;;;;0.15;0.15;;;;;;;;;;5061974;27;88933;-76
2022/06/10 09:21:42;;;;;;;0.20;0.20;;;;;;;;;;5060949;27;88633;-76
2022/06/10 09:24:12;;;;;;;0.20;0.20;;;;;;;;;;5061741;27;89213;-77
2022/06/10 09:26:42;;;;;;;0.10;0.10;;;;;;;;;;5061900;27;88168;-77
2022/06/10 09:29:12;;;;;;;0.20;0.20;;;;;;;;;;5062010;27;88443;-77
2022/06/10 09:31:40;;;;;;;0.10;0.10;;;;;;;;;;5061493;27;88585;-78
2022/06/10 09:34:16;;;;;;;0.10;0.10;;;;;;;;;;5064579;27;88100;-78
2022/06/10 09:37:03;;;;;;;0.25;0.25;;;;;;;;;;5043550;27;90418;-77
2022/06/10 09:42:35;;;;;;;0.10;0.10;;;;;;;;;;5061598;27;87986;-76
2022/06/10 09:45:09;;;;;;;0.22;0.22;;;;;;;;;;5044175;27;89023;-78
2022/06/10 09:47:55;;;;;;;0.15;0.15;;;;;;;;;;5061001;27;88631;-77
2022/06/10 09:50:27;;;;;;;0.10;0.10;;;;;;;;;;5061569;27;89414;-78
2022/06/10 09:53:12;;;;;;;0.10;0.10;;;;;;;;;;5043380;27;90784;-77
2022/06/10 09:55:55;;;;;;;0.10;0.10;;;;;;;;;;5061493;27;88517;-77
2022/06/10 09:58:27;;;;;;;0.10;0.10;;;;;;;;;;5064104;27;89048;-78
2022/06/10 10:01:04;;;;;;;0.10;0.10;;;;;;;;;;5061247;27;88839;-79
2022/06/10 10:03:31;;;;;;;0.10;0.10;;;;;;;;;;5061563;27;88307;-76
2022/06/10 10:06:11;;;;;;;0.10;0.10;;;;;;;;;;5062013;27;88392;-78
2022/06/10 10:08:53;;;;;;;0.15;0.15;;;;;;;;;;5061101;27;88531;-80
2022/06/10 10:11:42;;;;;;;0.10;0.10;;;;;;;;;;5060697;27;89211;-75
2022/06/10 10:14:16;;;;;;;0.10;0.10;;;;;;;;;;5060587;27;90306;-76
2022/06/10 10:16:42;;;;;;;0.10;0.10;;;;;;;;;;5061607;27;87932;-75
2022/06/10 10:19:27;;;;;;;0.10;0.10;;;;;;;;;;5061137;27;88793;-75
2022/06/10 10:22:00;;;;;;;0.20;0.20;;;;;;;;;;5063699;27;89489;-75
2022/06/10 10:24:32;;;;;;;0.32;0.20;;;;;;;;;;5061020;27;88102;-73
2022/06/10 10:27:00;;;;;;;0.10;0.10;;;;;;;;;;5060863;27;88229;-73
2022/06/10 10:29:35;;;;;;;0.10;0.10;;;;;;;;;;5061214;27;88190;-75
2022/06/10 10:32:08;;;;;;;0.20;0.20;;;;;;;;;;5061458;27;88151;-76
2022/06/10 10:34:38;;;;;;;0.10;0.10;;;;;;;;;;5042740;27;89176;-75
2022/06/10 10:37:17;;;;;;;0.10;0.10;;;;;;;;;;5060952;27;88208;-75
2022/06/10 10:39:49;;;;;;;0.10;0.10;;;;;;;;;;5060311;27;90843;-76
2022/06/10 10:42:18;;;;;;;0.10;0.10;;;;;;;;;;5060839;27;89218;-76
2022/06/10 10:44:58;;;;;;;0.10;0.10;;;;;;;;;;5063127;27;87757;-77
2022/06/10 10:47:28;;;;;;;0.10;0.10;;;;;;;;;;5060512;27;89173;-78
2022/06/10 10:49:59;;;;;;;0.10;0.10;;;;;;;;;;5060800;27;88219;-78
2022/06/10 10:52:40;;;;;;;0.00;0.00;;;;;;;;;;5061139;27;88916;-76
2022/06/10 10:55:09;;;;;;;0.10;0.10;;;;;;;;;;5042376;27;89968;-75
2022/06/10 10:57:37;;;;;;;0.10;0.10;;;;;;;;;;5060532;27;87105;-78
2022/06/10 11:00:07;;;;;;;0.10;0.10;;;;;;;;;;5060473;27;88172;-74
2022/06/10 11:02:49;;;;;;;0.10;0.10;;;;;;;;;;5060713;27;88820;-74
2022/06/10 11:05:15;;;;;;;0.10;0.10;;;;;;;;;;5059835;27;88521;-73
2022/06/10 11:07:46;;;;;;;0.20;0.20;;;;;;;;;;5044583;27;92131;-73
2022/06/10 11:10:17;;;;;;;0.10;0.10;;;;;;;;;;5060445;27;87765;-74
2022/06/10 11:12:45;;;;;;;0.10;0.10;;;;;;;;;;5060331;27;90719;-74
2022/06/10 11:15:29;;;;;;;0.10;0.10;;;;;;;;;;5060341;27;89234;-75
2022/06/10 11:17:57;;;;;;;0.10;0.10;;;;;;;;;;5060414;27;88088;-75
2022/06/10 11:20:24;;;;;;;0.10;0.10;;;;;;;;;;5060103;27;88940;-74
2022/06/10 11:23:08;;;;;;;0.25;0.25;;;;;;;;;;5060950;27;88629;-75
2022/06/10 11:25:42;;;;;;;0.10;0.10;;;;;;;;;;5060003;27;88057;-75
2022/06/10 11:28:16;;;;;;;0.10;0.10;;;;;;;;;;5063245;27;88433;-76
2022/06/10 11:30:48;;;;;;;0.10;0.10;;;;;;;;;;5059003;27;88561;-75
2022/06/10 11:33:22;;;;;;;0.10;0.10;;;;;;;;;;5060308;27;89915;-75
2022/06/10 11:36:04;;;;;;;0.10;0.10;;;;;;;;;;5059837;27;89048;-75
2022/06/10 11:38:31;;;;;;;0.10;0.10;;;;;;;;;;5060032;27;88181;-75
2022/06/10 11:41:00;;;;;;;0.13;0.13;;;;;;;;;;5059906;27;88859;-76
2022/06/10 11:43:31;;;;;;;0.10;0.10;;;;;;;;;;5059628;27;90274;-74
2022/06/10 11:46:02;;;;;;;0.10;0.10;;;;;;;;;;5059904;27;88458;-75
2022/06/10 11:48:35;;;;;;;0.10;0.10;;;;;;;;;;5060478;27;88809;-75
2022/06/10 11:51:06;;;;;;;0.10;0.10;;;;;;;;;;5062738;27;89502;-74
2022/06/10 11:53:39;;;;;;;0.10;0.10;;;;;;;;;;5059567;27;89035;-75
2022/06/10 12:01:47;;;;;;;0.10;0.10;;;;;;;;;;5063386;27;88218;-74
2022/06/10 12:04:17;;;;;;;0.10;0.10;;;;;;;;;;5062858;27;89202;-74
2022/06/10 12:06:46;;;;;;;0.95;0.80;;;;;;;;;;5063521;27;88100;-74
2022/06/10 12:09:17;;;;;;;0.10;0.10;;;;;;;;;;5062861;27;88948;-75
2022/06/10 12:11:50;;;;;;;0.10;0.10;;;;;;;;;;5063080;27;89044;-75
2022/06/10 12:14:23;;;;;;;0.10;0.10;;;;;;;;;;5066600;27;87833;-74
2022/06/10 12:16:52;;;;;;;0.15;0.15;;;;;;;;;;5062717;27;89156;-74
2022/06/10 12:19:22;;;;;;;0.10;0.10;;;;;;;;;;5062871;27;88394;-75
2022/06/10 12:21:50;;;;;;;0.10;0.10;;;;;;;;;;5045011;27;88636;-75
2022/06/10 12:24:18;;;;;;;0.15;0.15;;;;;;;;;;5044728;27;90637;-75
2022/06/10 12:26:50;;;;;;;0.13;0.13;;;;;;;;;;5063118;27;87584;-74
2022/06/10 12:29:29;;;;;;;0.10;0.10;;;;;;;;;;5062492;27;88561;-75
2022/06/10 12:31:56;;;;;;;0.10;0.10;;;;;;;;;;5062644;27;89165;-74
2022/06/10 12:34:35;;;;;;;0.10;0.10;;;;;;;;;;5062853;27;88166;-74
2022/06/10 12:37:04;;;;;;;0.10;0.10;;;;;;;;;;5065818;27;88941;-75
2022/06/10 12:39:36;;;;;;;0.10;0.10;;;;;;;;;;5062816;27;87715;-74
2022/06/10 12:42:29;;;;;;;0.10;0.10;;;;;;;;;;5062558;27;88367;-76
2022/06/10 12:44:57;;;;;;;0.38;0.30;;;;;;;;;;5040081;27;89469;-76
2022/06/10 12:47:29;;;;;;;0.10;0.10;;;;;;;;;;5062254;27;88458;-77
2022/06/10 12:50:00;;;;;;;0.10;0.10;;;;;;;;;;5062309;27;89158;-78
2022/06/10 12:52:44;;;;;;;0.10;0.10;;;;;;;;;;5044880;27;88825;-76
2022/06/10 12:55:22;;;;;;;0.10;0.10;;;;;;;;;;5063960;27;88085;-78
2022/06/10 12:57:48;;;;;;;0.10;0.10;;;;;;;;;;5044464;28;90850;-79
2022/06/10 13:00:17;;;;;;;0.10;0.10;;;;;;;;;;5045208;28;88899;-78
2022/06/10 13:02:45;;;;;;;0.10;0.10;;;;;;;;;;5041934;28;88723;-76
2022/06/10 13:05:22;;;;;;;0.10;0.10;;;;;;;;;;5042706;28;88438;-77
2022/06/10 13:07:50;;;;;;;0.10;0.10;;;;;;;;;;5041727;27;88601;-77
2022/06/10 13:10:33;;;;;;;0.17;0.17;;;;;;;;;;5042099;27;88780;-77
2022/06/10 13:13:18;;;;;;;0.10;0.10;;;;;;;;;;5040827;28;90727;-78
2022/06/10 13:15:49;;;;;;;0.20;0.20;;;;;;;;;;5041979;27;87778;-80
2022/06/10 13:18:15;;;;;;;0.10;0.10;;;;;;;;;;5041861;27;89150;-80
2022/06/10 13:20:43;;;;;;;0.10;0.10;;;;;;;;;;5041837;28;87768;-77
2022/06/10 13:23:20;;;;;;;0.10;0.10;;;;;;;;;;5044843;28;88178;-78
2022/06/10 13:25:51;;;;;;;0.13;0.13;;;;;;;;;;5041641;28;88987;-77
2022/06/10 13:28:17;;;;;;;;;;;;;;;;;;5028176;28;88197;-78
2022/06/10 13:30:44;;;;;;;0.28;0.28;;;;;;;;;;5019882;28;117922;-77
2022/06/10 13:33:12;;;;;;;0.10;0.10;;;;;;;;;;5020691;28;89146;-78
2022/06/10 13:35:45;;;;;;;0.10;0.10;;;;;;;;;;5021139;28;88630;-78
2022/06/10 13:38:16;;;;;;;0.10;0.10;;;;;;;;;;5019878;28;89115;-77
2022/06/10 13:40:47;;;;;;;1.88;1.10;;;;;;;;;;5020520;28;88715;-78
2022/06/10 13:43:37;;;;;;;0.10;0.10;;;;;;;;;;5023838;28;88274;-77
2022/06/10 13:46:04;;;;;;;0.10;0.10;;;;;;;;;;5020464;28;89218;-76
2022/06/10 13:48:31;;;;;;;0.10;0.10;;;;;;;;;;5020062;28;89656;-77
2022/06/10 13:51:12;;;;;;;0.10;0.10;;;;;;;;;;5020530;28;88938;-79
2022/06/10 13:53:56;;;;;;;0.10;0.10;;;;;;;;;;5021168;28;88886;-77
2022/06/10 13:56:27;;;;;;;0.10;0.10;;;;;;;;;;5020628;28;88263;-78
2022/06/10 13:58:54;;;;;;;0.10;0.10;;;;;;;;;;5032685;27;88902;-77
2022/06/10 14:01:24;;;;;;;1.98;1.13;;;;;;;;;;5040491;27;88629;-76
2022/06/10 14:03:54;;;;;;;0.10;0.10;;;;;;;;;;5041212;27;88694;-77
2022/06/10 14:06:28;;;;;;;0.10;0.10;;;;;;;;;;5043167;27;90119;-76
2022/06/10 14:09:05;;;;;;;0.10;0.10;;;;;;;;;;5040705;27;88433;-76
2022/06/10 14:11:40;;;;;;;0.10;0.10;;;;;;;;;;5040160;27;88873;-76
2022/06/10 14:14:09;;;;;;;0.10;0.10;;;;;;;;;;5023722;27;92272;-75
2022/06/10 14:16:37;;;;;;;0.10;0.10;;;;;;;;;;5040156;27;88084;-75
2022/06/10 14:19:06;;;;;;;0.10;0.10;;;;;;;;;;5040227;27;88804;-76
2022/06/10 14:21:35;;;;;;;0.10;0.10;;;;;;;;;;5039909;27;88702;-76
2022/06/10 14:24:04;;;;;;;0.05;0.05;;;;;;;;;;5041660;27;88605;-75
2022/06/10 14:26:32;;;;;;;0.10;0.10;;;;;;;;;;5040031;27;89062;-76
2022/06/10 14:29:16;;;;;;;0.10;0.10;;;;;;;;;;5042497;27;89479;-75
2022/06/10 14:31:45;;;;;;;0.10;0.10;;;;;;;;;;5039855;27;89030;-75
2022/06/10 14:34:15;;;;;;;0.10;0.10;;;;;;;;;;5042726;27;89287;-77
2022/06/10 14:36:55;;;;;;;0.10;0.10;;;;;;;;;;5040270;27;88160;-73
2022/06/10 14:39:25;;;;;;;0.10;0.10;;;;;;;;;;5039857;27;89095;-74
2022/06/10 14:41:53;;;;;;;0.00;0.00;;;;;;;;;;5039643;27;88684;-76
2022/06/10 14:44:24;;;;;;;0.10;0.10;;;;;;;;;;5042970;27;89290;-75
2022/06/10 14:47:13;;;;;;;0.10;0.10;;;;;;;;;;5040410;27;88499;-74
2022/06/10 14:49:44;;;;;;;0.10;0.10;;;;;;;;;;5039101;27;89926;-73
2022/06/10 14:52:17;;;;;;;0.25;0.25;;;;;;;;;;5043370;28;87901;-74
2022/06/10 14:54:44;;;;;;;0.10;0.10;;;;;;;;;;5042709;27;89308;-74
2022/06/10 14:57:17;;;;;;;0.10;0.10;;;;;;;;;;5039660;27;88032;-77
2022/06/10 14:59:43;;;;;;;0.10;0.10;;;;;;;;;;5038730;27;88924;-74
2022/06/10 15:02:10;;;;;;;0.10;0.10;;;;;;;;;;5040180;27;88736;-76
2022/06/10 15:04:37;;;;;;;0.10;0.10;;;;;;;;;;5045513;27;88810;-75
2022/06/10 15:07:24;;;;;;;0.10;0.10;;;;;;;;;;5038354;27;90585;-75
2022/06/10 15:09:51;;;;;;;0.10;0.10;;;;;;;;;;5039639;27;88470;-75
2022/06/10 15:12:25;;;;;;;0.10;0.10;;;;;;;;;;5040088;27;88506;-75
2022/06/10 15:14:53;;;;;;;0.10;0.10;;;;;;;;;;5041940;27;88268;-75
2022/06/10 15:17:21;;;;;;;0.10;0.10;;;;;;;;;;5021161;28;91204;-75
2022/06/10 15:19:48;;;;;;;0.10;0.10;;;;;;;;;;5038817;27;88657;-76
2022/06/10 15:22:18;;;;;;;0.10;0.10;;;;;;;;;;5039296;27;89252;-76
2022/06/10 15:24:45;;;;;;;0.10;0.10;;;;;;;;;;5039889;27;87922;-75
2022/06/10 15:27:12;;;;;;;3.20;0.30;;;;;;;;;;5039237;27;89463;-75